Bei Facebook empfehlenBei Twitter postenGoogle plusPinterest

Das Wetter im Erzgebirge am 24.08.2017

Wetter und Klima am 24.08.2017 Holzhau im Erzgebirge (630m ü.NN)
Letzte gemessene Temperatur und Uhrzeit der Messung23:45:00 Uhr14.30 °C
Temperatur (Maximum / Höchstwert) und Uhrzeit der Messung14:00:00 Uhr26.80 °C
Temperatur (Minimum / Tiefstwert) und Uhrzeit der Messung02:45:006.00 °C
Errechneter Absolutwert der Temperaturschwankungen zwischen Tmin und Tmax des Tages20.80 K
Errechnete Tagesmitteltemperatur16.04479 °C
Gesamt - Niederschlag des Tages (in flüssiger Form)0.00 Liter / m²
Luftdruck (Maximum / Höchstwert) und Zeitpunkt der Messung23:00:00 Uhr1015.40 hPa
Luftdruck (Minimum / Tiefstwert) und Zeitpunkt der Messung08:30:00 Uhr1012.90 hPa
Errechneter Absolutwert der Luftdruckschwankungen des Tages2.50 hPa
Höchste gemessene Windgeschwindigkeit und Uhrzeit der Messung10:15:00 Uhr32.40 km/h
Errechnete Windhäufigkeit in Relation zu den Messwerten des Tages7.29167 %
Niedrigste Windkühle (Windchill) und Zeitpunkt der Messung02:45:00 Uhr6.00 °C
Taupunkt (Maximum / Höchstwert) und Uhrzeit der Messung15:30:00 Uhr16.50 °C
Taupunkt (Minimum / Tiefstwert) und Uhrzeit der Messung01:15:004.00 °C
Anzahl der automatisch eingelesenen Messwerte 96

Detaillierte Wetter- und Klima- Messwerte für den 24.08.2017 in Holzhau im Erzgebirge (630m ü.NN)
ZeitTemperaturLuftdruckRel. LuftfeuchteWindWindrichtungWindchillTaupunktNiederschlag l/m²
23:45:0014.30 °C1015.30 hPa87.00 %12.20 °C 
23:30:0014.40 °C1015.30 hPa86.00 %12.10 °C 
23:15:0014.60 °C1015.10 hPa86.00 %12.30 °C 
23:00:0014.60 °C1015.40 hPa86.00 %12.30 °C 
22:45:0014.90 °C1015.00 hPa85.00 %12.40 °C 
22:30:0015.30 °C1015.00 hPa84.00 %12.60 °C 
22:15:0015.80 °C1014.90 hPa84.00 %13.10 °C 
22:00:0015.80 °C1014.90 hPa85.00 %13.30 °C 
21:45:0015.50 °C1014.80 hPa85.00 %13.00 °C 
21:30:0015.10 °C1014.70 hPa84.00 %12.40 °C 
21:15:0014.80 °C1014.60 hPa83.00 %11.90 °C 
21:00:0015.20 °C1014.40 hPa81.00 %12.00 °C 
20:45:0015.90 °C1014.50 hPa79.00 %12.30 °C 
20:30:0016.90 °C1014.50 hPa77.00 %12.80 °C 
20:15:0018.10 °C1014.30 hPa74.00 %13.40 °C 
20:00:0019.10 °C1014.20 hPa72.00 %13.90 °C 
19:45:0019.90 °C1014.20 hPa71.00 %14.50 °C 
19:30:0020.40 °C1014.10 hPa70.00 %14.70 °C 
19:15:0020.90 °C1014.10 hPa69.00 %15.00 °C 
19:00:0021.10 °C1014.10 hPa68.00 %15.00 °C 
18:45:0021.40 °C1014.00 hPa67.00 %15.00 °C 
18:30:0022.10 °C1013.90 hPa65.00 %15.20 °C 
18:15:0022.60 °C1013.90 hPa65.00 %15.70 °C 
18:00:0022.40 °C1013.80 hPa65.00 %15.50 °C 
17:45:0022.70 °C1013.70 hPa64.00 %15.50 °C 
17:30:0022.80 °C1013.60 hPa64.00 %15.60 °C 
17:15:0023.00 °C1013.50 hPa62.00 %15.30 °C 
17:00:0023.60 °C1013.60 hPa60.00 %15.40 °C 
16:45:0023.90 °C1013.60 hPa59.00 %15.40 °C 
16:30:0024.60 °C1013.40 hPa59.00 %16.10 °C 
16:15:0025.20 °C1013.50 hPa57.00 %16.10 °C 
16:00:0025.40 °C1013.30 hPa56.00 %16.00 °C 
15:45:0026.20 °C1013.30 hPa55.00 %16.40 °C 
15:30:0025.90 °C1013.40 hPa56.00 %16.50 °C 
15:15:0025.60 °C1013.50 hPa57.00 %16.40 °C 
15:00:0025.90 °C1013.50 hPa55.00 %16.20 °C 
14:45:0026.60 °C1013.40 hPa53.00 %16.20 °C 
14:30:0026.30 °C1013.40 hPa53.00 %16.00 °C 
14:15:0026.40 °C1013.50 hPa52.00 %15.80 °C 
14:00:0026.80 °C1013.70 hPa53.00 %16.40 °C 
13:45:0026.50 °C1013.70 hPa53.00 %11.52 km/hSW26.50 °C16.10 °C 
13:30:0026.10 °C1013.70 hPa54.00 %16.10 °C 
13:15:0025.30 °C1013.80 hPa56.00 %15.90 °C 
13:00:0025.10 °C1013.90 hPa56.00 %15.70 °C 
12:45:0024.90 °C1013.70 hPa57.00 %15.80 °C 
12:30:0025.00 °C1013.40 hPa57.00 %12.96 km/hNW25.00 °C15.90 °C 
12:15:0024.90 °C1013.70 hPa56.00 %15.50 °C 
12:00:0024.80 °C1013.60 hPa58.00 %16.00 °C 
11:45:0024.70 °C1013.50 hPa58.00 %15.90 °C 
11:30:0024.20 °C1013.80 hPa58.00 %15.40 °C 
11:15:0023.50 °C1013.40 hPa59.00 %18.00 km/hSW25.10 °C15.00 °C 
11:00:0023.10 °C1013.50 hPa61.00 %16.92 km/hWNW23.10 °C15.20 °C 
10:45:0022.50 °C1013.50 hPa63.00 %23.40 km/hWSW23.80 °C15.10 °C 
10:30:0021.80 °C1013.50 hPa64.00 %12.96 km/hSW21.80 °C14.70 °C 
10:15:0021.30 °C1013.50 hPa66.00 %32.40 km/hS22.20 °C14.70 °C 
10:00:0020.50 °C1013.40 hPa68.00 %14.40 °C 
09:45:0019.20 °C1013.40 hPa73.00 %14.20 °C 
09:30:0017.50 °C1013.30 hPa76.00 %13.20 °C 
09:15:0016.40 °C1013.30 hPa78.00 %12.60 °C 
09:00:0015.20 °C1013.10 hPa81.00 %12.00 °C 
08:45:0013.90 °C1013.10 hPa82.00 %10.90 °C 
08:30:0012.60 °C1012.90 hPa84.00 %10.00 °C 
08:15:0011.60 °C1013.10 hPa86.00 %9.30 °C 
08:00:0010.60 °C1013.20 hPa87.00 %8.50 °C 
07:45:009.90 °C1013.40 hPa88.00 %8.00 °C 
07:30:009.20 °C1013.30 hPa88.00 %7.30 °C 
07:15:008.60 °C1013.50 hPa89.00 %6.90 °C 
07:00:007.90 °C1013.60 hPa90.00 %6.40 °C 
06:45:007.30 °C1013.60 hPa90.00 %5.80 °C 
06:30:006.80 °C1013.70 hPa90.00 %5.30 °C 
06:15:006.40 °C1013.80 hPa90.00 %4.90 °C 
06:00:006.20 °C1013.90 hPa89.00 %4.50 °C 
05:45:006.20 °C1013.80 hPa89.00 %4.50 °C 
05:30:006.30 °C1013.80 hPa89.00 %4.60 °C 
05:15:006.30 °C1013.90 hPa89.00 %4.60 °C 
05:00:006.40 °C1013.90 hPa89.00 %4.70 °C 
04:45:006.40 °C1014.00 hPa89.00 %4.70 °C 
04:30:006.50 °C1014.00 hPa89.00 %4.80 °C 
04:15:006.60 °C1014.20 hPa89.00 %4.90 °C 
04:00:006.60 °C1014.20 hPa89.00 %4.90 °C 
03:45:006.40 °C1014.30 hPa89.00 %4.70 °C 
03:30:006.40 °C1014.40 hPa89.00 %4.70 °C 
03:15:006.40 °C1014.50 hPa89.00 %4.70 °C 
03:00:006.10 °C1014.50 hPa89.00 %4.40 °C 
02:45:006.00 °C1014.60 hPa88.00 %4.20 °C 
02:30:006.10 °C1014.70 hPa88.00 %4.30 °C 
02:15:006.20 °C1014.80 hPa88.00 %4.40 °C 
02:00:006.30 °C1014.80 hPa87.00 %4.30 °C 
01:45:006.40 °C1014.90 hPa87.00 %4.40 °C 
01:30:006.40 °C1014.90 hPa87.00 %4.40 °C 
01:15:006.20 °C1015.00 hPa86.00 %4.00 °C 
01:00:006.50 °C1015.00 hPa86.00 %4.30 °C 
00:45:006.90 °C1015.00 hPa86.00 %4.70 °C 
00:30:006.90 °C1015.00 hPa86.00 %4.70 °C 
00:15:007.00 °C1015.10 hPa86.00 %4.80 °C 
00:00:007.30 °C1015.10 hPa86.00 %5.10 °C 

Permanenter Link zu dieser Seite: Wetter im Erzgebirge am 24.08.2017
Performance-Info: Die Erstellung der Seite / Statistik(en) / Tabelle(n) erforderte 5 Datenbankserver-Abfrage(n) und dauerte 99 Millisekunden. (Dieser Messwert ist von der Gesamt-Auslastung des Servers abhängig.)
Erzgebirge - Wetter | Erzgebirge - Wetter (Mobilgeräte) | Komplette Klimadatenbank